sensor_id;sensor_type;location;lat;lon;timestamp;temperature;humidity
76172;DHT22;64929;51.178;4.138;2023-03-08T00:00:59;4.00;89.00
76172;DHT22;64929;51.178;4.138;2023-03-08T00:03:25;4.10;88.40
76172;DHT22;64929;51.178;4.138;2023-03-08T00:05:50;4.10;87.60
76172;DHT22;64929;51.178;4.138;2023-03-08T00:08:17;3.80;88.70
76172;DHT22;64929;51.178;4.138;2023-03-08T00:10:42;3.80;89.20
76172;DHT22;64929;51.178;4.138;2023-03-08T00:13:09;3.70;89.20
76172;DHT22;64929;51.178;4.138;2023-03-08T00:15:38;3.70;89.30
76172;DHT22;64929;51.178;4.138;2023-03-08T00:18:05;3.60;89.40
76172;DHT22;64929;51.178;4.138;2023-03-08T00:20:31;3.60;89.90
76172;DHT22;64929;51.178;4.138;2023-03-08T00:22:56;3.70;89.60
76172;DHT22;64929;51.178;4.138;2023-03-08T00:25:22;3.60;89.50
76172;DHT22;64929;51.178;4.138;2023-03-08T00:27:48;3.70;89.10
76172;DHT22;64929;51.178;4.138;2023-03-08T00:30:14;3.90;88.20
76172;DHT22;64929;51.178;4.138;2023-03-08T00:32:39;3.90;88.20
76172;DHT22;64929;51.178;4.138;2023-03-08T00:35:05;4.10;87.30
76172;DHT22;64929;51.178;4.138;2023-03-08T00:37:31;4.00;87.20
76172;DHT22;64929;51.178;4.138;2023-03-08T00:39:57;3.90;87.60
76172;DHT22;64929;51.178;4.138;2023-03-08T00:42:23;4.10;87.30
76172;DHT22;64929;51.178;4.138;2023-03-08T00:44:49;4.10;87.80
76172;DHT22;64929;51.178;4.138;2023-03-08T00:47:15;4.10;87.40
76172;DHT22;64929;51.178;4.138;2023-03-08T00:49:41;4.10;87.40
76172;DHT22;64929;51.178;4.138;2023-03-08T00:52:07;4.30;86.40
76172;DHT22;64929;51.178;4.138;2023-03-08T00:54:33;4.50;86.20
76172;DHT22;64929;51.178;4.138;2023-03-08T00:56:58;4.50;86.40
76172;DHT22;64929;51.178;4.138;2023-03-08T00:59:24;4.70;86.30
76172;DHT22;64929;51.178;4.138;2023-03-08T01:01:50;4.80;84.80
76172;DHT22;64929;51.178;4.138;2023-03-08T01:04:16;4.60;85.40
76172;DHT22;64929;51.178;4.138;2023-03-08T01:06:42;4.50;85.80
76172;DHT22;64929;51.178;4.138;2023-03-08T01:09:09;4.70;85.40
76172;DHT22;64929;51.178;4.138;2023-03-08T01:11:35;4.70;84.00
76172;DHT22;64929;51.178;4.138;2023-03-08T01:14:02;4.60;84.60
76172;DHT22;64929;51.178;4.138;2023-03-08T01:16:30;4.80;84.10
76172;DHT22;64929;51.178;4.138;2023-03-08T01:18:57;4.70;84.80
76172;DHT22;64929;51.178;4.138;2023-03-08T01:21:25;4.80;84.70
76172;DHT22;64929;51.178;4.138;2023-03-08T01:23:51;4.80;84.40
76172;DHT22;64929;51.178;4.138;2023-03-08T01:26:19;4.90;84.40
76172;DHT22;64929;51.178;4.138;2023-03-08T01:28:45;4.80;84.10
76172;DHT22;64929;51.178;4.138;2023-03-08T01:31:14;4.80;85.00
76172;DHT22;64929;51.178;4.138;2023-03-08T01:33:41;4.80;85.10
76172;DHT22;64929;51.178;4.138;2023-03-08T01:36:09;4.70;84.80
76172;DHT22;64929;51.178;4.138;2023-03-08T01:38:35;4.80;85.30
76172;DHT22;64929;51.178;4.138;2023-03-08T01:41:02;4.80;84.80
76172;DHT22;64929;51.178;4.138;2023-03-08T01:43:34;4.90;84.30
76172;DHT22;64929;51.178;4.138;2023-03-08T01:48:31;5.00;82.70
76172;DHT22;64929;51.178;4.138;2023-03-08T01:50:58;5.10;82.40
76172;DHT22;64929;51.178;4.138;2023-03-08T01:53:25;4.90;82.80
76172;DHT22;64929;51.178;4.138;2023-03-08T01:55:51;5.00;83.60
76172;DHT22;64929;51.178;4.138;2023-03-08T01:58:17;4.80;83.90
76172;DHT22;64929;51.178;4.138;2023-03-08T02:00:43;4.90;83.50
76172;DHT22;64929;51.178;4.138;2023-03-08T02:03:10;5.00;83.80
76172;DHT22;64929;51.178;4.138;2023-03-08T02:05:37;4.90;83.80
76172;DHT22;64929;51.178;4.138;2023-03-08T02:08:04;5.00;83.90
76172;DHT22;64929;51.178;4.138;2023-03-08T02:10:30;4.90;83.90
76172;DHT22;64929;51.178;4.138;2023-03-08T02:12:56;4.90;83.70
76172;DHT22;64929;51.178;4.138;2023-03-08T02:15:22;4.80;84.60
76172;DHT22;64929;51.178;4.138;2023-03-08T02:17:48;5.00;84.00
76172;DHT22;64929;51.178;4.138;2023-03-08T02:20:31;4.90;84.10
76172;DHT22;64929;51.178;4.138;2023-03-08T02:25:35;5.20;83.20
76172;DHT22;64929;51.178;4.138;2023-03-08T02:28:00;5.20;82.50
76172;DHT22;64929;51.178;4.138;2023-03-08T02:30:32;5.20;82.50
76172;DHT22;64929;51.178;4.138;2023-03-08T02:32:58;5.20;82.80
76172;DHT22;64929;51.178;4.138;2023-03-08T02:35:24;5.20;82.60
76172;DHT22;64929;51.178;4.138;2023-03-08T02:37:50;5.20;82.70
76172;DHT22;64929;51.178;4.138;2023-03-08T02:40:16;5.20;82.60
76172;DHT22;64929;51.178;4.138;2023-03-08T02:42:41;5.10;82.60
76172;DHT22;64929;51.178;4.138;2023-03-08T02:45:08;5.00;82.60
76172;DHT22;64929;51.178;4.138;2023-03-08T02:47:34;5.00;83.50
76172;DHT22;64929;51.178;4.138;2023-03-08T02:50:00;4.80;84.10
76172;DHT22;64929;51.178;4.138;2023-03-08T02:52:25;4.80;84.50
76172;DHT22;64929;51.178;4.138;2023-03-08T02:54:51;4.80;84.30
76172;DHT22;64929;51.178;4.138;2023-03-08T02:57:18;4.80;84.60
76172;DHT22;64929;51.178;4.138;2023-03-08T02:59:44;4.80;84.30
76172;DHT22;64929;51.178;4.138;2023-03-08T03:02:10;4.80;85.10
76172;DHT22;64929;51.178;4.138;2023-03-08T03:04:36;4.80;84.70
76172;DHT22;64929;51.178;4.138;2023-03-08T03:07:02;4.70;84.30
76172;DHT22;64929;51.178;4.138;2023-03-08T03:09:28;4.70;84.20
76172;DHT22;64929;51.178;4.138;2023-03-08T03:11:54;4.70;84.80
76172;DHT22;64929;51.178;4.138;2023-03-08T03:14:19;4.70;85.10
76172;DHT22;64929;51.178;4.138;2023-03-08T03:16:45;4.60;85.70
76172;DHT22;64929;51.178;4.138;2023-03-08T03:19:11;4.50;85.60
76172;DHT22;64929;51.178;4.138;2023-03-08T03:21:40;4.40;86.40
76172;DHT22;64929;51.178;4.138;2023-03-08T03:24:06;4.40;86.00
76172;DHT22;64929;51.178;4.138;2023-03-08T03:26:32;4.50;86.20
76172;DHT22;64929;51.178;4.138;2023-03-08T03:28:58;4.40;86.50
76172;DHT22;64929;51.178;4.138;2023-03-08T03:31:25;4.30;86.80
76172;DHT22;64929;51.178;4.138;2023-03-08T03:33:52;4.30;86.80
76172;DHT22;64929;51.178;4.138;2023-03-08T03:36:20;4.50;85.90
76172;DHT22;64929;51.178;4.138;2023-03-08T03:38:47;4.30;86.70
76172;DHT22;64929;51.178;4.138;2023-03-08T03:41:16;4.30;86.60
76172;DHT22;64929;51.178;4.138;2023-03-08T03:43:42;4.30;86.40
76172;DHT22;64929;51.178;4.138;2023-03-08T03:46:12;4.20;86.70
76172;DHT22;64929;51.178;4.138;2023-03-08T03:48:38;4.10;87.00
76172;DHT22;64929;51.178;4.138;2023-03-08T03:51:06;4.00;86.10
76172;DHT22;64929;51.178;4.138;2023-03-08T03:53:34;4.00;86.30
76172;DHT22;64929;51.178;4.138;2023-03-08T03:56:07;3.90;86.30
76172;DHT22;64929;51.178;4.138;2023-03-08T03:58:33;4.00;86.80
76172;DHT22;64929;51.178;4.138;2023-03-08T04:00:59;4.00;85.80
76172;DHT22;64929;51.178;4.138;2023-03-08T04:03:25;3.70;87.40
76172;DHT22;64929;51.178;4.138;2023-03-08T04:05:51;3.60;87.50
76172;DHT22;64929;51.178;4.138;2023-03-08T04:08:17;3.60;87.80
76172;DHT22;64929;51.178;4.138;2023-03-08T04:10:43;3.70;87.30
76172;DHT22;64929;51.178;4.138;2023-03-08T04:13:13;3.80;87.00
76172;DHT22;64929;51.178;4.138;2023-03-08T04:15:39;3.80;86.40
76172;DHT22;64929;51.178;4.138;2023-03-08T04:18:05;3.80;86.70
76172;DHT22;64929;51.178;4.138;2023-03-08T04:20:30;3.80;86.20
76172;DHT22;64929;51.178;4.138;2023-03-08T04:22:56;3.60;86.50
76172;DHT22;64929;51.178;4.138;2023-03-08T04:25:22;3.40;87.60
76172;DHT22;64929;51.178;4.138;2023-03-08T04:27:47;3.40;87.70
76172;DHT22;64929;51.178;4.138;2023-03-08T04:30:13;3.40;87.80
76172;DHT22;64929;51.178;4.138;2023-03-08T04:32:39;3.40;88.00
76172;DHT22;64929;51.178;4.138;2023-03-08T04:35:05;3.50;87.00
76172;DHT22;64929;51.178;4.138;2023-03-08T04:37:30;3.50;87.20
76172;DHT22;64929;51.178;4.138;2023-03-08T04:39:56;3.50;86.80
76172;DHT22;64929;51.178;4.138;2023-03-08T04:42:22;3.50;86.50
76172;DHT22;64929;51.178;4.138;2023-03-08T04:44:47;3.50;86.60
76172;DHT22;64929;51.178;4.138;2023-03-08T04:47:13;3.50;86.40
76172;DHT22;64929;51.178;4.138;2023-03-08T04:49:39;3.40;86.20
76172;DHT22;64929;51.178;4.138;2023-03-08T04:52:05;3.50;86.20
76172;DHT22;64929;51.178;4.138;2023-03-08T04:54:30;3.50;86.40
76172;DHT22;64929;51.178;4.138;2023-03-08T04:56:56;3.40;86.70
76172;DHT22;64929;51.178;4.138;2023-03-08T04:59:22;3.40;85.90
76172;DHT22;64929;51.178;4.138;2023-03-08T05:01:48;3.40;86.20
76172;DHT22;64929;51.178;4.138;2023-03-08T05:04:13;3.40;86.40
76172;DHT22;64929;51.178;4.138;2023-03-08T05:06:39;3.20;86.60
76172;DHT22;64929;51.178;4.138;2023-03-08T05:09:05;3.40;86.80
76172;DHT22;64929;51.178;4.138;2023-03-08T05:11:30;3.30;86.60
76172;DHT22;64929;51.178;4.138;2023-03-08T05:13:57;3.30;86.60
76172;DHT22;64929;51.178;4.138;2023-03-08T05:16:24;3.30;86.70
76172;DHT22;64929;51.178;4.138;2023-03-08T05:18:50;3.00;87.30
76172;DHT22;64929;51.178;4.138;2023-03-08T05:21:18;3.00;88.10
76172;DHT22;64929;51.178;4.138;2023-03-08T05:23:44;2.90;88.10
76172;DHT22;64929;51.178;4.138;2023-03-08T05:26:12;2.80;88.40
76172;DHT22;64929;51.178;4.138;2023-03-08T05:28:39;2.90;88.00
76172;DHT22;64929;51.178;4.138;2023-03-08T05:31:17;2.90;88.40
76172;DHT22;64929;51.178;4.138;2023-03-08T05:33:45;2.80;88.30
76172;DHT22;64929;51.178;4.138;2023-03-08T05:36:12;2.90;88.30
76172;DHT22;64929;51.178;4.138;2023-03-08T05:38:38;2.90;87.90
76172;DHT22;64929;51.178;4.138;2023-03-08T05:41:06;2.80;88.10
76172;DHT22;64929;51.178;4.138;2023-03-08T05:43:33;2.80;88.90
76172;DHT22;64929;51.178;4.138;2023-03-08T05:46:07;2.80;88.70
76172;DHT22;64929;51.178;4.138;2023-03-08T05:48:34;2.80;89.10
76172;DHT22;64929;51.178;4.138;2023-03-08T05:51:12;2.70;88.40
76172;DHT22;64929;51.178;4.138;2023-03-08T05:53:38;2.80;88.30
76172;DHT22;64929;51.178;4.138;2023-03-08T05:56:18;2.80;88.50
76172;DHT22;64929;51.178;4.138;2023-03-08T05:58:45;2.80;88.70
76172;DHT22;64929;51.178;4.138;2023-03-08T06:03:37;2.80;88.40
76172;DHT22;64929;51.178;4.138;2023-03-08T06:06:03;2.70;88.60
76172;DHT22;64929;51.178;4.138;2023-03-08T06:08:29;2.80;88.50
76172;DHT22;64929;51.178;4.138;2023-03-08T06:10:59;2.70;88.50
76172;DHT22;64929;51.178;4.138;2023-03-08T06:13:24;2.70;88.30
76172;DHT22;64929;51.178;4.138;2023-03-08T06:15:54;2.70;88.20
76172;DHT22;64929;51.178;4.138;2023-03-08T06:18:21;2.70;88.60
76172;DHT22;64929;51.178;4.138;2023-03-08T06:21:07;2.80;88.50
76172;DHT22;64929;51.178;4.138;2023-03-08T06:23:34;2.70;88.70
76172;DHT22;64929;51.178;4.138;2023-03-08T06:26:00;2.80;88.50
76172;DHT22;64929;51.178;4.138;2023-03-08T06:28:27;2.80;88.10
76172;DHT22;64929;51.178;4.138;2023-03-08T06:30:53;2.80;88.40
76172;DHT22;64929;51.178;4.138;2023-03-08T06:33:22;2.70;88.80
76172;DHT22;64929;51.178;4.138;2023-03-08T06:36:05;2.60;89.00
76172;DHT22;64929;51.178;4.138;2023-03-08T06:38:33;2.60;89.20
76172;DHT22;64929;51.178;4.138;2023-03-08T06:41:03;2.70;88.10
76172;DHT22;64929;51.178;4.138;2023-03-08T06:43:29;2.50;88.60
76172;DHT22;64929;51.178;4.138;2023-03-08T06:45:55;2.50;89.50
76172;DHT22;64929;51.178;4.138;2023-03-08T06:48:20;2.50;89.10
76172;DHT22;64929;51.178;4.138;2023-03-08T06:50:48;2.40;90.00
76172;DHT22;64929;51.178;4.138;2023-03-08T06:53:15;2.40;89.20
76172;DHT22;64929;51.178;4.138;2023-03-08T06:55:41;2.40;88.80
76172;DHT22;64929;51.178;4.138;2023-03-08T06:58:08;2.40;89.20
76172;DHT22;64929;51.178;4.138;2023-03-08T07:00:34;2.40;88.90
76172;DHT22;64929;51.178;4.138;2023-03-08T07:03:00;2.40;89.00
76172;DHT22;64929;51.178;4.138;2023-03-08T07:05:26;2.20;90.00
76172;DHT22;64929;51.178;4.138;2023-03-08T07:07:53;2.30;89.90
76172;DHT22;64929;51.178;4.138;2023-03-08T07:10:20;2.30;89.80
76172;DHT22;64929;51.178;4.138;2023-03-08T07:12:47;2.30;90.20
76172;DHT22;64929;51.178;4.138;2023-03-08T07:15:18;2.30;90.20
76172;DHT22;64929;51.178;4.138;2023-03-08T07:17:45;2.40;90.10
76172;DHT22;64929;51.178;4.138;2023-03-08T07:20:13;2.30;90.10
76172;DHT22;64929;51.178;4.138;2023-03-08T07:22:42;2.30;90.10
76172;DHT22;64929;51.178;4.138;2023-03-08T07:25:16;2.50;90.10
76172;DHT22;64929;51.178;4.138;2023-03-08T07:27:42;2.40;89.80
76172;DHT22;64929;51.178;4.138;2023-03-08T07:30:10;2.40;89.90
76172;DHT22;64929;51.178;4.138;2023-03-08T07:32:37;2.60;88.70
76172;DHT22;64929;51.178;4.138;2023-03-08T07:35:05;2.40;89.20
76172;DHT22;64929;51.178;4.138;2023-03-08T07:37:31;2.40;89.40
76172;DHT22;64929;51.178;4.138;2023-03-08T07:39:57;2.30;90.20
76172;DHT22;64929;51.178;4.138;2023-03-08T07:42:23;2.40;90.00
76172;DHT22;64929;51.178;4.138;2023-03-08T07:44:49;2.60;88.90
76172;DHT22;64929;51.178;4.138;2023-03-08T07:47:14;2.50;89.10
76172;DHT22;64929;51.178;4.138;2023-03-08T07:49:40;2.40;89.50
76172;DHT22;64929;51.178;4.138;2023-03-08T07:52:06;2.40;89.50
76172;DHT22;64929;51.178;4.138;2023-03-08T07:54:31;2.50;89.30
76172;DHT22;64929;51.178;4.138;2023-03-08T07:56:57;2.50;89.10
76172;DHT22;64929;51.178;4.138;2023-03-08T07:59:23;2.70;88.40
76172;DHT22;64929;51.178;4.138;2023-03-08T08:01:50;2.50;88.80
76172;DHT22;64929;51.178;4.138;2023-03-08T08:04:16;2.60;88.20
76172;DHT22;64929;51.178;4.138;2023-03-08T08:06:42;2.50;89.10
76172;DHT22;64929;51.178;4.138;2023-03-08T08:09:09;2.60;89.20
76172;DHT22;64929;51.178;4.138;2023-03-08T08:11:37;2.50;88.50
76172;DHT22;64929;51.178;4.138;2023-03-08T08:14:04;2.50;88.90
76172;DHT22;64929;51.178;4.138;2023-03-08T08:16:30;2.70;88.60
76172;DHT22;64929;51.178;4.138;2023-03-08T08:18:56;2.80;87.50
76172;DHT22;64929;51.178;4.138;2023-03-08T08:21:24;2.70;87.80
76172;DHT22;64929;51.178;4.138;2023-03-08T08:23:50;2.80;87.80
76172;DHT22;64929;51.178;4.138;2023-03-08T08:26:20;2.70;87.40
76172;DHT22;64929;51.178;4.138;2023-03-08T08:28:49;2.60;88.00
76172;DHT22;64929;51.178;4.138;2023-03-08T08:31:18;2.60;88.40
76172;DHT22;64929;51.178;4.138;2023-03-08T08:33:44;2.50;88.60
76172;DHT22;64929;51.178;4.138;2023-03-08T08:36:13;2.60;88.40
76172;DHT22;64929;51.178;4.138;2023-03-08T08:38:41;2.70;88.70
76172;DHT22;64929;51.178;4.138;2023-03-08T08:41:16;2.80;87.70
76172;DHT22;64929;51.178;4.138;2023-03-08T08:43:42;2.80;87.70
76172;DHT22;64929;51.178;4.138;2023-03-08T08:46:09;2.70;88.10
76172;DHT22;64929;51.178;4.138;2023-03-08T08:48:35;2.70;88.00
76172;DHT22;64929;51.178;4.138;2023-03-08T08:51:07;2.70;88.40
76172;DHT22;64929;51.178;4.138;2023-03-08T08:53:34;2.70;88.50
76172;DHT22;64929;51.178;4.138;2023-03-08T08:56:18;2.60;89.10
76172;DHT22;64929;51.178;4.138;2023-03-08T08:58:44;2.80;88.30
76172;DHT22;64929;51.178;4.138;2023-03-08T09:01:24;2.90;87.60
76172;DHT22;64929;51.178;4.138;2023-03-08T09:03:50;2.90;87.10
76172;DHT22;64929;51.178;4.138;2023-03-08T09:06:17;2.90;87.00
76172;DHT22;64929;51.178;4.138;2023-03-08T09:08:51;2.90;87.40
76172;DHT22;64929;51.178;4.138;2023-03-08T09:11:17;3.00;87.50
76172;DHT22;64929;51.178;4.138;2023-03-08T09:13:42;3.00;87.10
76172;DHT22;64929;51.178;4.138;2023-03-08T09:16:26;3.20;86.40
76172;DHT22;64929;51.178;4.138;2023-03-08T09:18:53;3.10;86.70
76172;DHT22;64929;51.178;4.138;2023-03-08T09:21:20;2.90;86.80
76172;DHT22;64929;51.178;4.138;2023-03-08T09:23:46;3.00;87.20
76172;DHT22;64929;51.178;4.138;2023-03-08T09:26:13;3.10;86.80
76172;DHT22;64929;51.178;4.138;2023-03-08T09:28:39;3.10;86.50
76172;DHT22;64929;51.178;4.138;2023-03-08T09:31:08;3.30;86.20
76172;DHT22;64929;51.178;4.138;2023-03-08T09:33:46;3.10;86.60
76172;DHT22;64929;51.178;4.138;2023-03-08T09:36:13;3.20;86.50
76172;DHT22;64929;51.178;4.138;2023-03-08T09:38:39;3.00;87.20
76172;DHT22;64929;51.178;4.138;2023-03-08T09:41:53;3.10;86.80
76172;DHT22;64929;51.178;4.138;2023-03-08T09:47:03;3.20;86.90
76172;DHT22;64929;51.178;4.138;2023-03-08T09:49:31;3.10;86.40
76172;DHT22;64929;51.178;4.138;2023-03-08T09:52:09;3.20;86.70
76172;DHT22;64929;51.178;4.138;2023-03-08T09:54:37;3.20;86.50
76172;DHT22;64929;51.178;4.138;2023-03-08T09:57:05;3.20;87.10
76172;DHT22;64929;51.178;4.138;2023-03-08T09:59:56;3.40;85.90
76172;DHT22;64929;51.178;4.138;2023-03-08T10:02:35;3.50;86.10
76172;DHT22;64929;51.178;4.138;2023-03-08T10:05:20;3.60;85.30
76172;DHT22;64929;51.178;4.138;2023-03-08T10:07:56;3.40;85.60
76172;DHT22;64929;51.178;4.138;2023-03-08T10:10:45;3.40;85.90
76172;DHT22;64929;51.178;4.138;2023-03-08T10:15:49;3.50;85.10
76172;DHT22;64929;51.178;4.138;2023-03-08T10:18:44;3.40;85.50
76172;DHT22;64929;51.178;4.138;2023-03-08T10:21:10;3.40;85.70
76172;DHT22;64929;51.178;4.138;2023-03-08T10:23:38;3.40;86.40
76172;DHT22;64929;51.178;4.138;2023-03-08T10:26:12;3.50;86.40
76172;DHT22;64929;51.178;4.138;2023-03-08T10:28:38;3.40;86.10
76172;DHT22;64929;51.178;4.138;2023-03-08T10:31:18;3.40;86.20
76172;DHT22;64929;51.178;4.138;2023-03-08T10:33:45;3.40;86.80
76172;DHT22;64929;51.178;4.138;2023-03-08T10:36:19;3.50;85.60
76172;DHT22;64929;51.178;4.138;2023-03-08T10:41:28;3.70;85.90
76172;DHT22;64929;51.178;4.138;2023-03-08T10:43:55;3.80;84.70
76172;DHT22;64929;51.178;4.138;2023-03-08T10:46:26;3.70;85.80
76172;DHT22;64929;51.178;4.138;2023-03-08T10:49:06;3.90;85.70
76172;DHT22;64929;51.178;4.138;2023-03-08T10:51:32;4.00;84.20
76172;DHT22;64929;51.178;4.138;2023-03-08T10:54:03;4.00;85.00
76172;DHT22;64929;51.178;4.138;2023-03-08T10:56:42;3.90;84.50
76172;DHT22;64929;51.178;4.138;2023-03-08T10:59:29;3.70;85.10
76172;DHT22;64929;51.178;4.138;2023-03-08T11:02:16;3.90;85.50
76172;DHT22;64929;51.178;4.138;2023-03-08T11:04:54;3.80;85.60
76172;DHT22;64929;51.178;4.138;2023-03-08T11:07:23;3.90;85.00
76172;DHT22;64929;51.178;4.138;2023-03-08T11:09:50;4.10;84.70
76172;DHT22;64929;51.178;4.138;2023-03-08T11:12:24;4.00;85.00
76172;DHT22;64929;51.178;4.138;2023-03-08T11:14:51;4.00;84.20
76172;DHT22;64929;51.178;4.138;2023-03-08T11:22:59;3.80;86.30
76172;DHT22;64929;51.178;4.138;2023-03-08T11:36:49;3.90;86.00
76172;DHT22;64929;51.178;4.138;2023-03-08T11:39:31;3.90;85.60
76172;DHT22;64929;51.178;4.138;2023-03-08T11:47:47;3.70;85.30
76172;DHT22;64929;51.178;4.138;2023-03-08T11:50:38;3.70;86.20
76172;DHT22;64929;51.178;4.138;2023-03-08T12:07:05;3.80;84.90
76172;DHT22;64929;51.178;4.138;2023-03-08T12:09:36;3.90;85.30
76172;DHT22;64929;51.178;4.138;2023-03-08T12:12:40;3.80;85.40
76172;DHT22;64929;51.178;4.138;2023-03-08T12:15:34;3.80;86.10
76172;DHT22;64929;51.178;4.138;2023-03-08T12:18:09;3.80;85.10
76172;DHT22;64929;51.178;4.138;2023-03-08T12:20:41;3.70;86.00
76172;DHT22;64929;51.178;4.138;2023-03-08T12:25:44;3.80;86.50
76172;DHT22;64929;51.178;4.138;2023-03-08T12:33:12;4.10;84.30
76172;DHT22;64929;51.178;4.138;2023-03-08T12:35:54;4.10;84.60
76172;DHT22;64929;51.178;4.138;2023-03-08T12:40:53;3.70;86.20
76172;DHT22;64929;51.178;4.138;2023-03-08T12:48:21;3.80;85.70
76172;DHT22;64929;51.178;4.138;2023-03-08T12:53:36;3.90;84.90
76172;DHT22;64929;51.178;4.138;2023-03-08T12:56:20;3.90;85.20
76172;DHT22;64929;51.178;4.138;2023-03-08T12:58:52;4.00;85.00
76172;DHT22;64929;51.178;4.138;2023-03-08T13:01:32;3.80;85.90
76172;DHT22;64929;51.178;4.138;2023-03-08T13:03:59;3.80;86.70
76172;DHT22;64929;51.178;4.138;2023-03-08T13:06:30;3.90;85.60
76172;DHT22;64929;51.178;4.138;2023-03-08T13:09:25;4.10;85.60
76172;DHT22;64929;51.178;4.138;2023-03-08T13:12:09;4.20;85.10
76172;DHT22;64929;51.178;4.138;2023-03-08T13:14:44;4.20;85.20
76172;DHT22;64929;51.178;4.138;2023-03-08T13:28:35;4.10;84.70
76172;DHT22;64929;51.178;4.138;2023-03-08T13:31:14;4.10;85.40
76172;DHT22;64929;51.178;4.138;2023-03-08T13:33:44;4.10;84.90
76172;DHT22;64929;51.178;4.138;2023-03-08T13:36:18;4.30;85.20
76172;DHT22;64929;51.178;4.138;2023-03-08T13:38:54;4.20;84.20
76172;DHT22;64929;51.178;4.138;2023-03-08T13:41:31;4.30;84.50
76172;DHT22;64929;51.178;4.138;2023-03-08T13:44:26;4.40;83.50
76172;DHT22;64929;51.178;4.138;2023-03-08T13:46:56;4.30;85.00
76172;DHT22;64929;51.178;4.138;2023-03-08T13:49:33;4.30;85.10
76172;DHT22;64929;51.178;4.138;2023-03-08T13:52:01;4.40;84.10
76172;DHT22;64929;51.178;4.138;2023-03-08T13:54:33;4.50;83.90
76172;DHT22;64929;51.178;4.138;2023-03-08T13:57:03;4.50;82.70
76172;DHT22;64929;51.178;4.138;2023-03-08T13:59:30;4.30;83.70
76172;DHT22;64929;51.178;4.138;2023-03-08T14:01:56;4.30;84.80
76172;DHT22;64929;51.178;4.138;2023-03-08T14:04:25;4.30;84.60
76172;DHT22;64929;51.178;4.138;2023-03-08T14:06:59;4.30;83.90
76172;DHT22;64929;51.178;4.138;2023-03-08T14:09:25;4.20;84.80
76172;DHT22;64929;51.178;4.138;2023-03-08T14:12:05;4.20;84.60
76172;DHT22;64929;51.178;4.138;2023-03-08T14:14:36;4.20;85.50
76172;DHT22;64929;51.178;4.138;2023-03-08T14:17:03;4.20;85.10
76172;DHT22;64929;51.178;4.138;2023-03-08T14:19:31;4.20;85.00
76172;DHT22;64929;51.178;4.138;2023-03-08T14:22:16;4.20;84.50
76172;DHT22;64929;51.178;4.138;2023-03-08T14:24:51;4.30;84.50
76172;DHT22;64929;51.178;4.138;2023-03-08T14:29:46;4.30;85.10
76172;DHT22;64929;51.178;4.138;2023-03-08T14:39:39;4.20;84.90
76172;DHT22;64929;51.178;4.138;2023-03-08T14:42:29;4.20;85.80
76172;DHT22;64929;51.178;4.138;2023-03-08T14:45:00;4.30;84.40
76172;DHT22;64929;51.178;4.138;2023-03-08T14:47:27;4.20;84.80
76172;DHT22;64929;51.178;4.138;2023-03-08T14:52:20;4.20;85.00
76172;DHT22;64929;51.178;4.138;2023-03-08T14:54:46;4.20;84.40
76172;DHT22;64929;51.178;4.138;2023-03-08T14:57:18;4.10;85.30
76172;DHT22;64929;51.178;4.138;2023-03-08T14:59:44;4.20;86.30
76172;DHT22;64929;51.178;4.138;2023-03-08T15:02:12;4.40;85.50
76172;DHT22;64929;51.178;4.138;2023-03-08T15:04:39;4.30;84.70
76172;DHT22;64929;51.178;4.138;2023-03-08T15:07:05;4.20;85.40
76172;DHT22;64929;51.178;4.138;2023-03-08T15:09:31;4.40;85.50
76172;DHT22;64929;51.178;4.138;2023-03-08T15:11:58;4.50;85.10
76172;DHT22;64929;51.178;4.138;2023-03-08T15:14:25;4.40;85.30
76172;DHT22;64929;51.178;4.138;2023-03-08T15:16:52;4.40;85.00
76172;DHT22;64929;51.178;4.138;2023-03-08T15:19:20;4.20;85.60
76172;DHT22;64929;51.178;4.138;2023-03-08T15:21:46;4.10;86.80
76172;DHT22;64929;51.178;4.138;2023-03-08T15:24:14;4.00;87.60
76172;DHT22;64929;51.178;4.138;2023-03-08T15:26:43;4.10;86.90
76172;DHT22;64929;51.178;4.138;2023-03-08T15:29:25;4.20;86.80
76172;DHT22;64929;51.178;4.138;2023-03-08T15:31:51;4.30;86.20
76172;DHT22;64929;51.178;4.138;2023-03-08T15:34:17;4.20;87.00
76172;DHT22;64929;51.178;4.138;2023-03-08T15:36:43;4.30;86.70
76172;DHT22;64929;51.178;4.138;2023-03-08T15:39:11;4.30;86.20
76172;DHT22;64929;51.178;4.138;2023-03-08T15:41:36;4.40;86.30
76172;DHT22;64929;51.178;4.138;2023-03-08T15:44:02;4.30;86.50
76172;DHT22;64929;51.178;4.138;2023-03-08T15:46:28;4.40;86.60
76172;DHT22;64929;51.178;4.138;2023-03-08T15:48:54;4.40;87.30
76172;DHT22;64929;51.178;4.138;2023-03-08T15:51:21;4.40;86.20
76172;DHT22;64929;51.178;4.138;2023-03-08T15:53:48;4.60;86.20
76172;DHT22;64929;51.178;4.138;2023-03-08T15:56:15;4.50;86.00
76172;DHT22;64929;51.178;4.138;2023-03-08T15:58:41;4.40;86.40
76172;DHT22;64929;51.178;4.138;2023-03-08T16:01:07;4.40;85.90
76172;DHT22;64929;51.178;4.138;2023-03-08T16:03:33;4.40;85.90
76172;DHT22;64929;51.178;4.138;2023-03-08T16:06:00;4.20;87.40
76172;DHT22;64929;51.178;4.138;2023-03-08T16:08:27;4.20;87.10
76172;DHT22;64929;51.178;4.138;2023-03-08T16:10:54;4.40;86.40
76172;DHT22;64929;51.178;4.138;2023-03-08T16:13:20;4.30;86.50
76172;DHT22;64929;51.178;4.138;2023-03-08T16:15:48;4.40;86.50
76172;DHT22;64929;51.178;4.138;2023-03-08T16:18:14;4.30;86.80
76172;DHT22;64929;51.178;4.138;2023-03-08T16:20:40;4.40;86.80
76172;DHT22;64929;51.178;4.138;2023-03-08T16:23:07;4.40;86.90
76172;DHT22;64929;51.178;4.138;2023-03-08T16:25:33;4.30;86.50
76172;DHT22;64929;51.178;4.138;2023-03-08T16:27:58;4.10;87.50
76172;DHT22;64929;51.178;4.138;2023-03-08T16:30:24;4.20;88.00
76172;DHT22;64929;51.178;4.138;2023-03-08T16:32:52;4.20;87.60
76172;DHT22;64929;51.178;4.138;2023-03-08T16:35:18;4.20;87.70
76172;DHT22;64929;51.178;4.138;2023-03-08T16:37:43;4.20;87.60
76172;DHT22;64929;51.178;4.138;2023-03-08T16:40:09;4.40;87.40
76172;DHT22;64929;51.178;4.138;2023-03-08T16:42:36;4.40;87.10
76172;DHT22;64929;51.178;4.138;2023-03-08T16:45:02;4.40;86.80
76172;DHT22;64929;51.178;4.138;2023-03-08T16:47:28;4.30;87.30
76172;DHT22;64929;51.178;4.138;2023-03-08T16:49:57;4.10;88.10
76172;DHT22;64929;51.178;4.138;2023-03-08T16:52:23;4.10;87.70
76172;DHT22;64929;51.178;4.138;2023-03-08T16:54:49;4.20;87.20
76172;DHT22;64929;51.178;4.138;2023-03-08T16:57:15;4.30;87.00
76172;DHT22;64929;51.178;4.138;2023-03-08T16:59:42;4.30;86.60
76172;DHT22;64929;51.178;4.138;2023-03-08T17:02:16;4.10;87.60
76172;DHT22;64929;51.178;4.138;2023-03-08T17:04:43;4.00;88.40
76172;DHT22;64929;51.178;4.138;2023-03-08T17:07:10;3.90;88.60
76172;DHT22;64929;51.178;4.138;2023-03-08T17:09:36;4.00;88.90
76172;DHT22;64929;51.178;4.138;2023-03-08T17:12:02;4.00;88.50
76172;DHT22;64929;51.178;4.138;2023-03-08T17:14:28;4.10;88.20
76172;DHT22;64929;51.178;4.138;2023-03-08T17:16:54;4.00;88.10
76172;DHT22;64929;51.178;4.138;2023-03-08T17:19:19;3.90;88.30
76172;DHT22;64929;51.178;4.138;2023-03-08T17:21:47;3.90;88.20
76172;DHT22;64929;51.178;4.138;2023-03-08T17:24:13;4.00;88.40
76172;DHT22;64929;51.178;4.138;2023-03-08T17:26:41;4.00;88.40
76172;DHT22;64929;51.178;4.138;2023-03-08T17:29:07;3.90;88.10